createdAt,value
2018-08-21T07:28:01.067Z,105
2018-08-21T07:28:33.105Z,105
2018-08-21T07:29:05.218Z,105
2018-08-21T07:29:37.479Z,105
2018-08-21T07:30:09.543Z,105
2018-08-21T07:30:41.560Z,105
2018-08-21T07:31:13.595Z,105
2018-08-21T07:31:45.624Z,105
2018-08-21T07:32:17.688Z,105
2018-08-21T07:32:49.742Z,105
2018-08-21T07:33:21.794Z,105
2018-08-21T07:33:53.876Z,105
2018-08-21T07:34:25.934Z,105
2018-08-21T07:34:58.078Z,105
2018-08-21T07:35:30.528Z,110
2018-08-21T07:36:02.530Z,110
2018-08-21T07:36:34.625Z,115
2018-08-21T07:37:06.652Z,155
2018-08-21T07:37:38.719Z,150
2018-08-21T07:38:10.783Z,135
2018-08-21T07:38:42.835Z,115
2018-08-21T07:39:14.905Z,110
2018-08-21T07:39:46.951Z,110
2018-08-21T07:40:19.024Z,110
2018-08-21T07:40:51.114Z,110
2018-08-21T07:41:23.163Z,110
2018-08-21T07:41:55.196Z,110
2018-08-21T07:42:27.244Z,110
2018-08-21T07:42:59.380Z,110
2018-08-21T07:43:31.416Z,110
2018-08-21T07:44:03.427Z,110
2018-08-21T07:44:35.474Z,110
2018-08-21T07:45:07.508Z,110
2018-08-21T07:45:39.603Z,110
2018-08-21T07:46:12.933Z,110
2018-08-21T07:46:45.247Z,110
2018-08-21T07:47:17.298Z,115
2018-08-21T07:47:49.390Z,115
2018-08-21T07:48:21.468Z,115
2018-08-21T07:48:53.494Z,115
2018-08-21T07:49:25.519Z,120
2018-08-21T07:49:57.563Z,125
2018-08-21T07:50:29.647Z,135
2018-08-21T07:51:01.784Z,155
2018-08-21T07:51:33.831Z,140
2018-08-21T07:52:05.877Z,140
2018-08-21T07:52:37.943Z,135
2018-08-21T07:53:10.055Z,130
2018-08-21T07:53:42.113Z,130
2018-08-21T07:54:14.136Z,125
2018-08-21T07:54:46.184Z,125
2018-08-21T07:55:18.268Z,130
2018-08-21T07:55:50.424Z,130
2018-08-21T07:56:22.616Z,130
2018-08-21T07:56:54.652Z,130
2018-08-21T07:57:26.712Z,130
2018-08-21T07:57:58.859Z,125
2018-08-21T07:58:30.915Z,125
2018-08-21T07:59:02.935Z,125
2018-08-21T07:59:35.617Z,125
2018-08-21T08:00:07.663Z,125
2018-08-21T08:00:39.773Z,125
2018-08-21T08:01:11.753Z,125
2018-08-21T08:01:43.828Z,130
2018-08-21T08:02:15.843Z,130
2018-08-21T08:02:47.951Z,130
2018-08-21T08:03:19.988Z,130
2018-08-21T08:03:52.053Z,130
2018-08-21T08:04:24.130Z,130
2018-08-21T08:04:56.213Z,130
2018-08-21T08:05:28.363Z,135
2018-08-21T08:06:00.437Z,145
2018-08-21T08:06:32.523Z,150
2018-08-21T08:07:04.530Z,145
2018-08-21T08:07:36.634Z,140
2018-08-21T08:08:08.816Z,140
2018-08-21T08:08:40.935Z,140
2018-08-21T08:09:13.055Z,135
2018-08-21T08:09:45.103Z,135
2018-08-21T08:10:17.244Z,135
2018-08-21T08:10:50.048Z,135
2018-08-21T08:11:22.135Z,135
2018-08-21T08:11:54.233Z,135
2018-08-21T08:12:26.315Z,135
2018-08-21T08:12:58.346Z,135
2018-08-21T08:13:30.546Z,135
2018-08-21T08:14:02.792Z,140
2018-08-21T08:14:34.845Z,140
2018-08-21T08:15:06.907Z,140
2018-08-21T08:15:38.976Z,140
2018-08-21T08:16:11.020Z,145
2018-08-21T08:16:43.117Z,145
2018-08-21T08:17:15.284Z,150
2018-08-21T08:17:47.294Z,150
2018-08-21T08:18:19.362Z,150
2018-08-21T08:18:51.441Z,150
2018-08-21T08:19:23.512Z,155
2018-08-21T08:19:55.597Z,155
2018-08-21T08:20:27.824Z,155
2018-08-21T08:20:59.939Z,165
2018-08-21T08:21:32.029Z,165
2018-08-21T08:22:04.142Z,170
2018-08-21T08:22:36.397Z,165
2018-08-21T08:23:08.577Z,155
2018-08-21T08:23:40.672Z,155
2018-08-21T08:24:13.535Z,150
2018-08-21T08:24:45.645Z,150
2018-08-21T08:25:17.808Z,155
2018-08-21T08:25:49.998Z,160
2018-08-21T08:26:22.068Z,165
2018-08-21T08:26:54.138Z,160
2018-08-21T08:27:26.187Z,160
2018-08-21T08:27:58.255Z,155
2018-08-21T08:28:30.403Z,155
2018-08-21T08:29:02.622Z,155
2018-08-21T08:29:34.692Z,155
2018-08-21T08:30:06.789Z,155
2018-08-21T08:30:38.884Z,160
2018-08-21T08:31:10.934Z,160
2018-08-21T08:31:43.029Z,160
2018-08-21T08:32:15.112Z,160
2018-08-21T08:32:47.134Z,165
2018-08-21T08:33:19.264Z,170
2018-08-21T08:33:51.499Z,170
2018-08-21T08:34:24.064Z,170
2018-08-21T08:34:56.153Z,165
2018-08-21T08:35:28.244Z,160
2018-08-21T08:36:00.693Z,190
2018-08-21T08:36:32.667Z,185
2018-08-21T08:37:04.771Z,190
2018-08-21T08:37:36.791Z,175
2018-08-21T08:38:08.841Z,205
2018-08-21T08:38:40.856Z,180
2018-08-21T08:39:12.921Z,185
2018-08-21T08:39:45.079Z,190
2018-08-21T08:40:17.123Z,200
2018-08-21T08:40:49.211Z,205
2018-08-21T08:41:21.270Z,185
2018-08-21T08:41:53.446Z,200
2018-08-21T08:42:25.442Z,200
2018-08-21T08:42:57.578Z,195
2018-08-21T08:43:29.771Z,200
2018-08-21T08:44:01.808Z,200
2018-08-21T08:44:33.919Z,195
2018-08-21T08:45:05.963Z,190
2018-08-21T08:45:38.010Z,190
2018-08-21T08:46:10.124Z,190
2018-08-21T08:46:42.131Z,185
2018-08-21T08:47:14.164Z,185
2018-08-21T08:47:46.238Z,165
2018-08-21T08:48:18.304Z,175
2018-08-21T08:48:50.390Z,180
2018-08-21T08:49:22.490Z,175
2018-08-21T08:49:54.535Z,160
2018-08-21T08:50:26.601Z,165
2018-08-21T08:50:58.725Z,180
2018-08-21T08:51:30.754Z,180
2018-08-21T08:52:02.828Z,155
2018-08-21T08:52:34.855Z,150
2018-08-21T08:53:06.899Z,155
2018-08-21T08:53:39.013Z,170
2018-08-21T08:54:11.684Z,180
2018-08-21T08:54:43.736Z,155
2018-08-21T08:55:18.389Z,165
2018-08-21T08:55:50.490Z,180
2018-08-21T08:56:22.512Z,185
2018-08-21T08:56:54.770Z,185
2018-08-21T08:57:26.850Z,180
2018-08-21T08:57:58.993Z,180
2018-08-21T08:58:31.105Z,175
2018-08-21T08:59:03.242Z,175
2018-08-21T08:59:35.305Z,170
2018-08-21T09:00:07.527Z,170
2018-08-21T09:00:39.697Z,170
2018-08-21T09:01:11.773Z,170
2018-08-21T09:01:43.803Z,150
2018-08-21T09:02:15.809Z,160
2018-08-21T09:02:47.846Z,150
2018-08-21T09:03:19.920Z,150
2018-08-21T09:03:51.983Z,160
2018-08-21T09:04:24.037Z,175
2018-08-21T09:04:56.185Z,175
2018-08-21T09:05:28.341Z,180
2018-08-21T09:06:00.251Z,190
2018-08-21T09:06:32.262Z,180
2018-08-21T09:07:04.272Z,185
2018-08-21T09:07:36.309Z,180
2018-08-21T09:08:08.360Z,180
2018-08-21T09:08:40.381Z,185
2018-08-21T09:09:12.384Z,190
2018-08-21T09:09:44.425Z,190
2018-08-21T09:10:16.424Z,195
2018-08-21T09:10:48.519Z,195
2018-08-21T09:11:20.692Z,200
2018-08-21T09:11:52.806Z,215
2018-08-21T09:12:24.873Z,200
2018-08-21T09:12:56.943Z,195
2018-08-21T09:13:28.959Z,195
2018-08-21T09:14:01.041Z,200
2018-08-21T09:14:33.096Z,205
2018-08-21T09:15:05.170Z,210
2018-08-21T09:15:37.231Z,215
2018-08-21T09:16:09.327Z,220
2018-08-21T09:16:41.411Z,225
2018-08-21T09:17:13.541Z,225
2018-08-21T09:17:45.698Z,225
2018-08-21T09:18:17.679Z,230
2018-08-21T09:18:49.715Z,235
2018-08-21T09:19:21.760Z,240
2018-08-21T09:19:53.889Z,240
2018-08-21T09:20:26.506Z,230
2018-08-21T09:20:58.545Z,230
2018-08-21T09:21:30.592Z,220
2018-08-21T09:22:02.629Z,220
2018-08-21T09:22:34.735Z,220
2018-08-21T09:23:06.780Z,225
2018-08-21T09:23:39.838Z,225
2018-08-21T09:24:11.919Z,230
2018-08-21T09:24:43.953Z,230
2018-08-21T09:25:16.044Z,230
2018-08-21T09:25:48.117Z,225
2018-08-21T09:26:20.198Z,220
2018-08-21T09:26:52.253Z,225
2018-08-21T09:27:24.286Z,225
2018-08-21T09:27:56.339Z,225
2018-08-21T09:28:28.405Z,220
2018-08-21T09:29:00.471Z,220
2018-08-21T09:29:32.915Z,220
2018-08-21T09:30:04.984Z,220
2018-08-21T09:30:37.122Z,220
2018-08-21T09:31:09.158Z,225
2018-08-21T09:31:41.267Z,225
2018-08-21T09:32:13.305Z,225
2018-08-21T09:32:45.830Z,220
2018-08-21T09:33:17.943Z,215
2018-08-21T09:33:50.075Z,215
2018-08-21T09:34:22.245Z,215
2018-08-21T09:34:54.511Z,215
2018-08-21T09:35:26.542Z,215
2018-08-21T09:35:58.632Z,210
2018-08-21T09:36:30.715Z,205
2018-08-21T09:37:02.764Z,205
2018-08-21T09:37:34.812Z,205
2018-08-21T09:38:06.910Z,205
2018-08-21T09:38:38.928Z,200
2018-08-21T09:39:10.986Z,200
2018-08-21T09:39:43.077Z,200
2018-08-21T09:40:15.188Z,200
2018-08-21T09:40:47.238Z,200
2018-08-21T09:41:19.313Z,200
2018-08-21T09:41:51.491Z,205
2018-08-21T09:42:23.501Z,205
2018-08-21T09:42:55.533Z,210
2018-08-21T09:43:27.625Z,210
2018-08-21T09:44:00.614Z,210
2018-08-21T09:44:32.650Z,215
2018-08-21T09:45:04.700Z,220
2018-08-21T09:45:36.719Z,220
2018-08-21T09:46:08.775Z,225
2018-08-21T09:46:40.799Z,235
2018-08-21T09:47:12.893Z,230
2018-08-21T09:47:44.955Z,235
2018-08-21T09:48:16.967Z,235
2018-08-21T09:48:48.966Z,225
2018-08-21T09:49:21.019Z,225
2018-08-21T09:49:53.011Z,220
2018-08-21T09:50:25.071Z,220
2018-08-21T09:50:57.074Z,215
2018-08-21T09:51:29.185Z,215
2018-08-21T09:52:01.226Z,210
2018-08-21T09:52:33.263Z,210
2018-08-21T09:53:05.346Z,210
2018-08-21T09:53:37.380Z,210
2018-08-21T09:54:09.451Z,210
2018-08-21T09:54:41.566Z,205
2018-08-21T09:55:13.783Z,205
2018-08-21T09:55:45.822Z,210
2018-08-21T09:56:18.102Z,210
2018-08-21T09:56:50.911Z,210
2018-08-21T09:57:22.985Z,210
2018-08-21T09:57:55.041Z,215
2018-08-21T09:58:27.091Z,210
2018-08-21T09:58:59.128Z,215
2018-08-21T09:59:31.223Z,215
2018-08-21T10:00:03.220Z,220
2018-08-21T10:00:35.355Z,230
2018-08-21T10:01:07.433Z,220
2018-08-21T10:01:39.493Z,220
2018-08-21T10:02:11.567Z,220
2018-08-21T10:02:43.606Z,225
2018-08-21T10:03:15.652Z,225
2018-08-21T10:03:47.697Z,220
2018-08-21T10:04:19.744Z,215
2018-08-21T10:04:51.772Z,215
2018-08-21T10:05:23.820Z,220
2018-08-21T10:05:55.901Z,220
2018-08-21T10:06:27.938Z,215
2018-08-21T10:07:00.034Z,210
2018-08-21T10:07:32.074Z,270
2018-08-21T11:08:31.191Z,265
2018-08-21T11:09:03.284Z,265
2018-08-21T11:09:35.390Z,265
2018-08-21T11:10:07.463Z,265
2018-08-21T11:10:39.559Z,270
2018-08-21T11:11:11.641Z,275
2018-08-21T11:11:43.729Z,295
2018-08-21T11:12:15.812Z,295
2018-08-21T11:12:47.922Z,300
2018-08-21T11:13:20.018Z,300
2018-08-21T11:13:52.114Z,305
2018-08-21T11:14:25.069Z,315
2018-08-21T11:14:57.111Z,325
2018-08-21T11:15:29.218Z,345
2018-08-21T11:16:01.283Z,315
2018-08-21T11:16:33.387Z,300
2018-08-21T11:17:05.446Z,290
2018-08-21T11:17:37.548Z,270
2018-08-21T11:18:09.704Z,265
2018-08-21T11:18:41.682Z,265
